Time;durP1;ratioP1;P1;durP2;ratioP2;P2;SDS_P1;SDS_P2;PMS_P1;PMS_P2;Temp;Humidity;BMP_temperature;BMP_pressure;BME280_temperature;BME280_humidity;BME280_pressure;Samples;Min_cycle;Max_cycle;Signal;HPM_P1;HPM_P2
2021/04/13 00:01:12;;;;;;;1.48;0.63;;;7.30;97.80;;;;;;4787822;29;20530;-74
2021/04/13 00:03:45;;;;;;;1.50;0.82;;;7.30;98.20;;;;;;4787201;29;20047;-74
2021/04/13 00:06:13;;;;;;;1.70;0.77;;;7.40;97.20;;;;;;4786167;29;20058;-74
2021/04/13 00:08:41;;;;;;;1.95;0.70;;;7.40;97.50;;;;;;4791173;29;20066;-74
2021/04/13 00:11:11;;;;;;;1.77;0.60;;;7.40;97.00;;;;;;4798986;29;20446;-74
2021/04/13 00:13:41;;;;;;;1.60;0.63;;;7.30;97.60;;;;;;4801826;29;20112;-75
2021/04/13 00:16:19;;;;;;;1.35;0.43;;;7.10;98.00;;;;;;4785964;29;20120;-74
2021/04/13 00:18:46;;;;;;;1.77;0.60;;;7.20;97.60;;;;;;4788443;29;20059;-74
2021/04/13 00:21:38;;;;;;;2.42;0.73;;;7.10;97.90;;;;;;4799758;29;20115;-74
2021/04/13 00:24:11;;;;;;;1.00;0.40;;;7.00;98.30;;;;;;4768922;29;20050;-74
2021/04/13 00:26:37;;;;;;;2.40;0.80;;;7.10;98.60;;;;;;4788104;29;20074;-74
2021/04/13 00:29:12;;;;;;;1.85;0.60;;;7.30;97.40;;;;;;4790711;29;20116;-74
2021/04/13 00:31:45;;;;;;;1.58;0.50;;;7.30;97.40;;;;;;4797244;29;20063;-74
2021/04/13 00:34:27;;;;;;;1.80;0.60;;;7.10;97.50;;;;;;4785742;29;20054;-74
2021/04/13 00:37:11;;;;;;;1.85;0.60;;;6.90;98.50;;;;;;4805437;29;20055;-74
2021/04/13 00:39:38;;;;;;;1.27;0.57;;;6.80;98.90;;;;;;4799820;29;20038;-74
2021/04/13 00:42:14;;;;;;;3.05;1.08;;;7.10;98.40;;;;;;4789518;29;20100;-74
2021/04/13 00:44:49;;;;;;;2.00;0.80;;;7.10;98.00;;;;;;4766606;30;20110;-74
2021/04/13 00:47:25;;;;;;;2.03;0.60;;;7.00;98.40;;;;;;4783826;29;20065;-74
2021/04/13 00:49:56;;;;;;;1.63;0.60;;;7.00;98.30;;;;;;4787445;29;20050;-75
2021/04/13 00:52:35;;;;;;;1.67;0.57;;;7.00;98.80;;;;;;4789312;29;20111;-74
2021/04/13 00:55:07;;;;;;;1.55;0.63;;;7.00;98.40;;;;;;4793303;29;20407;-74
2021/04/13 00:57:46;;;;;;;2.65;0.80;;;7.00;98.70;;;;;;4791252;29;20616;-74
2021/04/13 01:00:22;;;;;;;2.00;0.60;;;7.10;98.20;;;;;;4804084;29;20047;-74
2021/04/13 01:02:55;;;;;;;1.50;0.63;;;7.00;98.20;;;;;;4779965;29;20115;-74
2021/04/13 01:05:22;;;;;;;1.08;0.70;;;6.90;98.70;;;;;;4787763;29;20051;-74
2021/04/13 01:07:53;;;;;;;1.85;0.60;;;6.90;98.30;;;;;;4773166;29;20073;-74
2021/04/13 01:10:31;;;;;;;1.27;0.43;;;6.90;98.20;;;;;;4789007;29;20077;-74
2021/04/13 01:13:11;;;;;;;1.17;0.50;;;6.90;98.80;;;;;;4787950;29;20051;-74
2021/04/13 01:15:42;;;;;;;1.30;0.40;;;6.80;98.60;;;;;;4769008;30;20062;-74
2021/04/13 01:18:23;;;;;;;2.40;0.50;;;6.80;98.90;;;;;;4774740;29;20668;-74
2021/04/13 01:21:23;;;;;;;1.42;0.50;;;6.70;99.90;;;;;;4770212;29;20049;-74
2021/04/13 01:24:03;;;;;;;2.72;0.57;;;6.80;99.90;;;;;;4785173;29;20056;-74
2021/04/13 01:26:32;;;;;;;1.48;0.57;;;6.90;99.90;;;;;;4796795;29;20047;-74
2021/04/13 01:29:00;;;;;;;1.35;0.43;;;6.90;99.90;;;;;;4769326;29;20051;-75
2021/04/13 01:34:23;;;;;;;1.10;0.45;;;6.90;99.90;;;;;;4787413;29;20055;-73
2021/04/13 01:37:45;;;;;;;1.15;0.43;;;6.80;99.90;;;;;;4778383;29;20051;-74
2021/04/13 01:40:21;;;;;;;1.40;0.55;;;6.70;99.90;;;;;;4784869;29;20073;-74
2021/04/13 01:42:49;;;;;;;2.47;0.57;;;6.70;99.90;;;;;;4781230;29;20568;-74
2021/04/13 01:45:22;;;;;;;2.28;0.60;;;6.80;99.90;;;;;;4779356;29;20416;-74
2021/04/13 01:47:48;;;;;;;2.22;0.55;;;6.70;99.90;;;;;;4797469;29;20063;-74
2021/04/13 01:50:19;;;;;;;1.88;0.77;;;6.90;99.90;;;;;;4805792;29;20058;-74
2021/04/13 01:52:49;;;;;;;1.27;0.40;;;6.90;99.90;;;;;;4790153;29;20447;-74
2021/04/13 01:55:19;;;;;;;3.10;0.75;;;6.80;99.90;;;;;;4792056;29;20511;-74
2021/04/13 01:57:56;;;;;;;1.75;0.82;;;7.00;99.90;;;;;;4789214;29;20061;-75
2021/04/13 02:00:28;;;;;;;2.03;0.60;;;6.90;99.90;;;;;;4786751;29;20074;-74
2021/04/13 02:03:28;;;;;;;2.10;0.93;;;6.90;99.90;;;;;;4770995;29;20051;-74
2021/04/13 02:06:02;;;;;;;1.67;0.60;;;7.10;99.90;;;;;;4790607;29;20420;-74
2021/04/13 02:08:40;;;;;;;1.35;0.40;;;7.00;99.90;;;;;;4779463;29;20058;-75
2021/04/13 02:11:19;;;;;;;1.63;0.60;;;7.00;99.90;;;;;;4769864;29;20567;-74
2021/04/13 02:13:56;;;;;;;2.30;0.60;;;7.00;99.90;;;;;;4785768;29;20061;-74
2021/04/13 02:16:32;;;;;;;2.80;0.40;;;7.10;99.90;;;;;;4789604;29;20059;-74
2021/04/13 02:19:02;;;;;;;1.17;0.40;;;7.10;99.90;;;;;;4785878;29;20062;-74
2021/04/13 02:21:41;;;;;;;1.80;0.70;;;7.10;99.90;;;;;;4786591;29;20127;-74
2021/04/13 02:24:11;;;;;;;1.35;0.30;;;7.00;99.90;;;;;;4772132;29;20123;-74
2021/04/13 02:26:44;;;;;;;1.83;0.50;;;6.90;99.90;;;;;;4780666;29;20043;-74
2021/04/13 02:29:12;;;;;;;;;;;6.90;99.90;;;;;;4804466;29;20062;-74
2021/04/13 02:31:48;;;;;;;1.25;0.65;;;6.90;99.90;;;;;;4797097;29;20013;-74
2021/04/13 02:34:23;;;;;;;0.90;0.30;;;6.90;99.90;;;;;;4792692;29;20459;-75
2021/04/13 02:36:56;;;;;;;1.10;0.40;;;6.80;99.90;;;;;;4792067;29;20080;-75
2021/04/13 02:39:24;;;;;;;;;;;6.80;99.90;;;;;;4782507;29;20467;-74
2021/04/13 02:42:15;;;;;;;1.10;0.38;;;6.90;99.90;;;;;;4803806;29;19925;-74
2021/04/13 02:44:42;;;;;;;1.42;0.45;;;6.90;99.90;;;;;;4772992;29;20419;-74
2021/04/13 02:47:13;;;;;;;1.70;0.60;;;6.80;99.90;;;;;;4786681;29;20423;-74
2021/04/13 02:49:42;;;;;;;1.70;0.43;;;6.70;99.90;;;;;;4804368;29;20070;-74
2021/04/13 02:52:16;;;;;;;0.77;0.40;;;6.80;99.90;;;;;;4799494;29;20136;-74
2021/04/13 02:54:53;;;;;;;1.17;0.40;;;6.80;99.90;;;;;;4783069;29;20125;-74
2021/04/13 02:57:25;;;;;;;1.00;0.30;;;6.70;99.90;;;;;;4796435;29;20796;-74
2021/04/13 03:00:04;;;;;;;0.60;0.30;;;6.80;99.90;;;;;;4800520;29;20520;-74
2021/04/13 03:02:46;;;;;;;3.40;0.40;;;6.90;99.90;;;;;;4796679;29;20051;-74
2021/04/13 03:05:19;;;;;;;1.17;0.32;;;6.70;99.90;;;;;;4779660;29;20050;-74
2021/04/13 03:07:47;;;;;;;1.00;0.30;;;6.70;99.90;;;;;;4773492;29;20078;-74
2021/04/13 03:10:17;;;;;;;1.38;0.50;;;6.70;99.90;;;;;;4782190;29;20057;-75
2021/04/13 03:12:47;;;;;;;1.00;0.30;;;6.70;99.90;;;;;;4802424;29;20049;-74
2021/04/13 03:15:16;;;;;;;0.90;0.40;;;6.80;99.90;;;;;;4785168;29;20512;-74
2021/04/13 03:17:49;;;;;;;1.52;0.30;;;6.70;99.90;;;;;;4797511;29;20055;-75
2021/04/13 03:20:42;;;;;;;0.63;0.30;;;6.80;99.90;;;;;;4778040;29;20051;-74
2021/04/13 03:23:11;;;;;;;0.93;0.20;;;6.60;99.90;;;;;;4787062;29;20063;-74
2021/04/13 03:25:48;;;;;;;1.33;0.50;;;6.70;99.90;;;;;;4786379;29;20364;-74
2021/04/13 03:28:19;;;;;;;0.63;0.20;;;6.90;99.90;;;;;;4785288;29;20059;-74
2021/04/13 03:30:45;;;;;;;1.15;0.40;;;7.00;99.80;;;;;;4800727;29;20043;-75
2021/04/13 03:33:15;;;;;;;0.98;0.35;;;7.00;99.30;;;;;;4802670;29;20119;-74
2021/04/13 03:35:42;;;;;;;1.40;0.40;;;6.80;99.90;;;;;;4783753;29;20047;-75
2021/04/13 03:38:13;;;;;;;1.02;0.40;;;6.70;99.90;;;;;;4787635;29;20058;-75
2021/04/13 03:40:45;;;;;;;1.20;0.52;;;7.00;99.70;;;;;;4781225;29;20047;-75
2021/04/13 03:43:15;;;;;;;1.15;0.40;;;7.20;99.60;;;;;;4798245;29;20054;-75
2021/04/13 03:45:44;;;;;;;1.08;0.40;;;7.10;98.70;;;;;;4803090;29;20051;-74
2021/04/13 03:48:19;;;;;;;2.30;0.50;;;7.20;98.20;;;;;;4788817;29;20101;-74
2021/04/13 03:50:53;;;;;;;0.88;0.38;;;7.30;98.30;;;;;;4786504;29;20058;-74
2021/04/13 03:53:31;;;;;;;1.00;0.60;;;7.20;97.90;;;;;;4797671;29;20054;-74
2021/04/13 03:56:09;;;;;;;0.88;0.45;;;7.10;98.30;;;;;;4783535;29;20047;-75
2021/04/13 03:58:42;;;;;;;1.17;0.43;;;7.00;98.40;;;;;;4805786;29;20047;-76
2021/04/13 04:01:13;;;;;;;1.80;0.60;;;7.00;98.20;;;;;;4781870;29;20463;-74
2021/04/13 04:03:44;;;;;;;2.38;0.60;;;7.00;97.80;;;;;;4790128;29;20047;-74
2021/04/13 04:06:16;;;;;;;0.90;0.32;;;6.90;98.10;;;;;;4771349;29;20043;-74
2021/04/13 04:08:48;;;;;;;1.00;0.35;;;6.90;98.10;;;;;;4790294;29;20066;-74
2021/04/13 04:11:15;;;;;;;2.05;0.47;;;6.80;99.20;;;;;;4789226;29;20559;-75
2021/04/13 04:13:47;;;;;;;1.65;0.57;;;6.90;98.80;;;;;;4788296;29;20042;-75
2021/04/13 04:16:27;;;;;;;0.95;0.50;;;6.80;98.90;;;;;;4797111;29;20039;-75
2021/04/13 04:18:55;;;;;;;1.60;0.70;;;6.90;99.20;;;;;;4789613;29;20515;-74
2021/04/13 04:21:36;;;;;;;1.45;0.70;;;6.90;98.80;;;;;;4775847;29;20050;-74
2021/04/13 04:24:18;;;;;;;2.25;0.60;;;7.00;98.70;;;;;;4797320;29;20069;-75
2021/04/13 04:26:54;;;;;;;1.95;0.55;;;6.80;99.00;;;;;;4798462;29;20039;-74
2021/04/13 04:29:35;;;;;;;1.55;0.52;;;7.00;99.20;;;;;;4787112;30;20491;-74
2021/04/13 04:32:19;;;;;;;1.23;0.40;;;7.10;97.90;;;;;;4789428;29;20043;-74
2021/04/13 04:34:45;;;;;;;1.27;0.60;;;7.20;97.40;;;;;;4791415;29;20134;-74
2021/04/13 04:37:34;;;;;;;2.05;0.57;;;7.20;97.70;;;;;;4791245;29;20051;-74
2021/04/13 04:40:28;;;;;;;1.88;0.85;;;7.20;97.40;;;;;;4805156;29;20457;-74
2021/04/13 04:43:05;;;;;;;1.80;0.73;;;7.20;97.20;;;;;;4785954;29;20523;-74
2021/04/13 04:45:43;;;;;;;1.35;0.80;;;7.30;97.50;;;;;;4785964;29;20404;-74
2021/04/13 04:48:40;;;;;;;1.75;0.88;;;7.00;98.20;;;;;;4786485;29;20071;-74
2021/04/13 04:51:09;;;;;;;2.13;0.77;;;7.00;98.50;;;;;;4795105;29;20050;-73
2021/04/13 04:53:38;;;;;;;3.60;1.27;;;7.00;98.90;;;;;;4785293;29;20751;-74
2021/04/13 04:56:08;;;;;;;2.35;0.80;;;7.00;98.90;;;;;;4803612;29;20515;-74
2021/04/13 04:58:35;;;;;;;1.98;0.90;;;7.00;99.00;;;;;;4789006;29;20407;-76
2021/04/13 05:01:03;;;;;;;2.03;0.82;;;7.10;98.70;;;;;;4805569;29;20047;-73
2021/04/13 05:03:30;;;;;;;2.10;0.90;;;7.00;99.50;;;;;;4797777;29;20051;-73
2021/04/13 05:05:58;;;;;;;2.38;0.95;;;7.10;99.20;;;;;;4800115;29;20067;-74
2021/04/13 05:08:25;;;;;;;3.65;0.90;;;7.10;99.60;;;;;;4790294;29;20069;-74
2021/04/13 05:10:52;;;;;;;3.70;1.83;;;7.20;99.70;;;;;;4809081;29;20488;-74
2021/04/13 05:13:20;;;;;;;5.40;1.48;;;7.30;99.40;;;;;;4788208;29;20070;-73
2021/04/13 05:15:47;;;;;;;3.05;1.30;;;7.20;98.90;;;;;;4777759;29;20134;-76
2021/04/13 05:18:14;;;;;;;2.67;1.00;;;7.30;98.30;;;;;;4785652;29;20082;-74
2021/04/13 05:20:41;;;;;;;1.83;1.00;;;7.30;98.50;;;;;;4799293;29;20046;-74
2021/04/13 05:23:07;;;;;;;2.70;1.10;;;7.20;99.10;;;;;;4787560;29;20058;-74
2021/04/13 05:25:34;;;;;;;4.47;1.00;;;7.30;99.10;;;;;;4789282;29;20080;-74
2021/04/13 05:28:01;;;;;;;2.20;1.15;;;7.10;99.60;;;;;;4782491;29;20097;-74
2021/04/13 05:30:27;;;;;;;2.58;0.70;;;7.10;99.70;;;;;;4798488;29;20061;-73
2021/04/13 05:32:54;;;;;;;3.03;0.88;;;7.10;99.90;;;;;;4787364;29;20088;-74
2021/04/13 05:35:22;;;;;;;3.10;1.10;;;7.20;99.90;;;;;;4798127;29;20065;-74
2021/04/13 05:37:49;;;;;;;2.40;0.82;;;7.20;99.90;;;;;;4777996;29;20047;-74
2021/04/13 05:40:20;;;;;;;1.73;0.70;;;7.20;99.70;;;;;;4789786;29;20042;-74
2021/04/13 05:42:47;;;;;;;2.88;1.02;;;7.20;99.90;;;;;;4788486;29;20519;-74
2021/04/13 05:45:15;;;;;;;1.67;1.00;;;7.10;99.90;;;;;;4783716;29;20092;-74
2021/04/13 05:47:42;;;;;;;2.25;1.00;;;7.20;99.90;;;;;;4788581;29;20067;-76
2021/04/13 05:50:18;;;;;;;2.53;1.15;;;7.20;99.90;;;;;;4772884;29;20059;-74
2021/04/13 05:52:44;;;;;;;2.45;0.90;;;7.30;99.90;;;;;;4792695;29;20051;-74
2021/04/13 05:55:11;;;;;;;5.35;0.88;;;7.40;99.90;;;;;;4796475;29;20039;-73
2021/04/13 05:57:38;;;;;;;2.17;0.90;;;7.50;99.90;;;;;;4787603;29;20093;-74
2021/04/13 06:00:06;;;;;;;3.40;1.10;;;7.60;99.50;;;;;;4789502;29;20050;-74
2021/04/13 06:02:34;;;;;;;2.85;1.05;;;7.50;99.90;;;;;;4794442;29;20066;-73
2021/04/13 06:05:03;;;;;;;3.85;1.02;;;7.60;99.20;;;;;;4789104;29;20061;-73
2021/04/13 06:07:34;;;;;;;3.78;1.15;;;7.70;98.70;;;;;;4778164;30;20039;-73
2021/04/13 06:10:00;;;;;;;2.15;0.85;;;7.70;99.10;;;;;;4801130;29;20043;-73
2021/04/13 06:12:27;;;;;;;1.33;0.50;;;7.80;98.50;;;;;;4785259;29;20051;-73
2021/04/13 06:14:54;;;;;;;1.65;0.57;;;7.80;98.10;;;;;;4781486;29;20100;-73
2021/04/13 06:17:20;;;;;;;1.48;0.63;;;7.70;98.00;;;;;;4783875;29;20740;-73
2021/04/13 06:19:47;;;;;;;2.47;1.00;;;7.60;97.90;;;;;;4789404;29;20162;-73
2021/04/13 06:22:14;;;;;;;2.63;0.90;;;7.70;98.10;;;;;;4797361;29;20073;-73
2021/04/13 06:24:41;;;;;;;1.85;0.57;;;7.70;98.80;;;;;;4794627;29;20051;-73
2021/04/13 06:27:08;;;;;;;1.40;0.50;;;7.80;97.80;;;;;;4792064;29;20074;-73
2021/04/13 06:29:38;;;;;;;2.03;1.00;;;7.80;97.50;;;;;;4786981;29;20063;-73
2021/04/13 06:32:10;;;;;;;1.85;0.60;;;7.70;98.40;;;;;;4798921;29;20129;-73
2021/04/13 06:34:37;;;;;;;2.35;0.75;;;7.70;98.10;;;;;;4767657;29;20059;-72
2021/04/13 06:37:06;;;;;;;3.10;0.77;;;7.50;98.70;;;;;;4797897;29;20071;-73
2021/04/13 06:39:35;;;;;;;2.90;0.90;;;7.60;99.00;;;;;;4786907;29;20047;-73
2021/04/13 06:42:30;;;;;;;2.25;0.93;;;7.50;99.90;;;;;;4786711;29;20109;-73
2021/04/13 06:45:25;;;;;;;2.67;0.85;;;7.60;99.90;;;;;;4802016;29;20055;-75
2021/04/13 06:48:40;;;;;;;2.53;0.90;;;7.60;99.90;;;;;;4793103;29;20070;-73
2021/04/13 06:51:19;;;;;;;2.13;0.70;;;7.70;99.90;;;;;;4712188;30;20057;-73
2021/04/13 06:54:07;;;;;;;1.92;0.98;;;7.70;99.90;;;;;;4696060;30;20152;-73
2021/04/13 06:56:46;;;;;;;2.33;0.95;;;7.80;99.90;;;;;;4725453;30;20131;-73
2021/04/13 06:59:31;;;;;;;2.50;0.80;;;7.90;99.90;;;;;;4711598;30;20590;-73
2021/04/13 07:02:00;;;;;;;2.38;1.30;;;7.80;99.90;;;;;;4701297;30;20503;-73
2021/04/13 07:04:54;;;;;;;3.50;1.05;;;7.80;99.90;;;;;;4688494;30;20100;-73
2021/04/13 07:07:38;;;;;;;3.63;0.90;;;7.80;99.90;;;;;;4692314;30;20053;-73
2021/04/13 07:10:15;;;;;;;1.75;0.60;;;7.80;99.90;;;;;;4709177;30;20070;-73
2021/04/13 07:13:17;;;;;;;3.10;0.63;;;7.80;99.80;;;;;;4703967;30;20057;-73
2021/04/13 07:16:15;;;;;;;2.58;0.80;;;7.90;99.60;;;;;;4708123;30;20470;-73
2021/04/13 07:18:59;;;;;;;2.97;0.43;;;7.90;98.80;;;;;;4709209;30;20065;-73
2021/04/13 07:21:47;;;;;;;2.03;0.63;;;7.90;99.30;;;;;;4712769;29;20059;-73
2021/04/13 07:24:25;;;;;;;1.48;0.40;;;7.70;99.70;;;;;;4802802;29;20057;-73
2021/04/13 07:26:59;;;;;;;1.60;0.63;;;7.80;99.30;;;;;;4804466;29;20384;-73
2021/04/13 07:30:06;;;;;;;2.25;0.70;;;7.80;99.20;;;;;;4796384;29;20816;-73
2021/04/13 07:32:35;;;;;;;2.83;0.50;;;7.70;99.90;;;;;;4783110;29;20419;-73
2021/04/13 07:35:09;;;;;;;1.98;0.60;;;7.80;99.10;;;;;;4784096;29;20141;-73
2021/04/13 07:37:44;;;;;;;2.10;0.68;;;7.70;98.90;;;;;;4792299;29;20515;-73
2021/04/13 07:40:27;;;;;;;2.30;0.70;;;7.70;99.30;;;;;;4782126;29;20062;-73
2021/04/13 07:43:20;;;;;;;2.35;0.70;;;7.70;99.00;;;;;;4796854;29;20588;-73
2021/04/13 07:45:59;;;;;;;4.30;0.88;;;7.70;99.00;;;;;;4770032;29;20051;-73
2021/04/13 07:48:58;;;;;;;4.15;1.10;;;7.60;99.10;;;;;;4793552;29;20062;-73
2021/04/13 07:52:02;;;;;;;2.28;0.80;;;7.50;99.60;;;;;;4775735;29;20519;-75
2021/04/13 07:54:48;;;;;;;2.80;0.70;;;7.70;99.00;;;;;;4782617;29;20067;-73
2021/04/13 07:57:24;;;;;;;4.15;0.90;;;7.90;99.10;;;;;;4800357;29;20054;-73
2021/04/13 08:00:30;;;;;;;6.63;1.40;;;7.90;99.40;;;;;;4802058;29;20050;-73
2021/04/13 08:03:23;;;;;;;7.80;2.53;;;7.90;99.60;;;;;;4743274;30;20056;-73
2021/04/13 08:05:53;;;;;;;6.72;1.65;;;8.10;99.90;;;;;;4727452;30;20064;-73
2021/04/13 08:08:34;;;;;;;28.35;6.57;;;8.20;99.10;;;;;;4723929;30;20052;-73
2021/04/13 08:11:11;;;;;;;16.65;5.07;;;8.10;99.90;;;;;;4710215;30;20176;-73
2021/04/13 08:13:56;;;;;;;7.18;3.15;;;8.20;99.90;;;;;;4740774;30;20052;-73
2021/04/13 08:16:27;;;;;;;5.03;2.15;;;8.20;99.90;;;;;;4744321;30;20596;-74
2021/04/13 08:19:24;;;;;;;5.88;1.70;;;8.20;99.90;;;;;;4731794;30;20101;-73
2021/04/13 08:22:13;;;;;;;2.45;1.05;;;8.30;99.90;;;;;;4745587;30;20048;-75
2021/04/13 08:24:58;;;;;;;3.17;1.30;;;8.30;99.90;;;;;;4745788;30;20429;-74
2021/04/13 08:27:49;;;;;;;3.55;1.15;;;8.30;99.90;;;;;;4729652;30;20047;-74
2021/04/13 08:30:46;;;;;;;3.40;1.58;;;8.40;99.90;;;;;;4733340;30;20072;-74
2021/04/13 08:33:36;;;;;;;2.63;1.00;;;8.40;99.90;;;;;;4731522;30;20142;-74
2021/04/13 08:36:16;;;;;;;2.28;1.10;;;8.40;99.90;;;;;;4741474;29;20051;-74
2021/04/13 08:38:55;;;;;;;3.03;1.40;;;8.20;99.90;;;;;;4778216;29;20055;-75
2021/04/13 08:41:40;;;;;;;5.00;1.58;;;8.20;99.90;;;;;;4789203;29;20062;-74
2021/04/13 08:44:47;;;;;;;2.63;1.50;;;8.20;99.90;;;;;;4793033;29;20051;-74
2021/04/13 08:47:36;;;;;;;3.83;1.70;;;8.20;99.90;;;;;;4710813;30;20059;-75
2021/04/13 08:50:21;;;;;;;5.10;1.45;;;8.30;99.90;;;;;;4710565;30;20493;-74
2021/04/13 08:52:56;;;;;;;3.28;1.00;;;8.20;99.90;;;;;;4710696;30;20122;-74
2021/04/13 08:55:35;;;;;;;4.60;1.00;;;8.20;99.90;;;;;;4712184;30;20048;-74
2021/04/13 08:58:14;;;;;;;3.00;1.05;;;8.30;99.90;;;;;;4710647;30;20061;-72
2021/04/13 09:00:45;;;;;;;3.25;1.13;;;8.30;99.90;;;;;;4711213;30;20110;-74
2021/04/13 09:03:17;;;;;;;2.65;1.40;;;8.30;99.90;;;;;;4716708;30;20049;-75
2021/04/13 09:05:48;;;;;;;3.58;1.17;;;8.20;99.90;;;;;;4708611;30;20049;-74
2021/04/13 09:08:46;;;;;;;5.97;0.93;;;8.10;99.90;;;;;;4695635;30;20049;-74
2021/04/13 09:11:27;;;;;;;2.35;1.08;;;8.00;99.90;;;;;;4710862;30;20063;-75
2021/04/13 09:14:31;;;;;;;4.45;1.63;;;8.00;99.90;;;;;;4709113;30;20118;-74
2021/04/13 09:17:09;;;;;;;2.25;0.70;;;8.00;99.90;;;;;;4686075;30;20069;-75
2021/04/13 09:19:48;;;;;;;2.92;0.80;;;8.20;99.90;;;;;;4705250;30;20065;-75
2021/04/13 09:22:25;;;;;;;3.22;1.02;;;8.10;99.90;;;;;;4773117;29;20050;-75
2021/04/13 09:25:06;;;;;;;2.80;0.60;;;8.10;99.90;;;;;;4779300;29;20051;-75
2021/04/13 09:27:42;;;;;;;3.08;0.90;;;8.10;99.90;;;;;;4778866;30;20149;-73
2021/04/13 09:30:17;;;;;;;5.28;1.48;;;8.10;99.90;;;;;;4776191;29;20054;-72
2021/04/13 09:32:45;;;;;;;3.17;1.35;;;8.20;99.90;;;;;;4773232;29;20062;-73
2021/04/13 09:35:44;;;;;;;3.28;1.20;;;8.20;99.90;;;;;;4784255;29;20055;-73
2021/04/13 09:38:43;;;;;;;2.83;1.05;;;8.10;99.90;;;;;;4790322;29;20595;-75
2021/04/13 09:41:31;;;;;;;3.15;1.08;;;8.10;99.90;;;;;;4796329;29;20111;-75
2021/04/13 09:44:25;;;;;;;2.45;1.08;;;8.00;99.90;;;;;;4783635;29;20042;-75
2021/04/13 09:47:27;;;;;;;6.70;2.10;;;7.90;99.90;;;;;;4780239;29;20051;-72
2021/04/13 09:50:36;;;;;;;4.25;1.60;;;7.90;99.90;;;;;;4777335;29;20051;-73
2021/04/13 09:53:30;;;;;;;5.82;1.95;;;7.90;99.90;;;;;;4779696;29;20054;-73
2021/04/13 09:56:20;;;;;;;4.65;2.13;;;7.80;99.90;;;;;;4779311;29;20074;-73
2021/04/13 09:59:04;;;;;;;5.72;2.65;;;7.70;99.90;;;;;;4775009;29;20091;-73
2021/04/13 10:37:30;;;;;;;8.70;4.18;;;7.90;99.90;;;;;;4798187;29;20045;-72
2021/04/13 10:40:26;;;;;;;12.48;5.10;;;7.80;99.90;;;;;;4793415;29;20043;-73
2021/04/13 10:43:01;;;;;;;7.35;2.92;;;7.70;99.90;;;;;;4805203;29;20055;-73
2021/04/13 10:45:52;;;;;;;5.35;2.58;;;7.60;99.90;;;;;;4810186;29;20055;-72
2021/04/13 10:48:40;;;;;;;6.07;3.17;;;7.70;99.90;;;;;;4806140;29;20427;-75
2021/04/13 10:51:24;;;;;;;6.38;3.08;;;7.60;99.90;;;;;;4813156;29;20399;-75
2021/04/13 10:53:57;;;;;;;7.20;3.53;;;7.60;99.90;;;;;;4792708;29;20065;-75
2021/04/13 10:56:35;;;;;;;4.75;1.67;;;7.70;99.90;;;;;;4820238;29;20046;-74
2021/04/13 10:59:30;;;;;;;6.63;2.63;;;7.60;99.90;;;;;;4814655;29;20039;-74
2021/04/13 11:02:32;;;;;;;5.90;2.90;;;7.60;99.90;;;;;;4813873;29;20077;-74
2021/04/13 11:05:37;;;;;;;6.47;3.07;;;7.60;99.90;;;;;;4831593;29;20141;-72
2021/04/13 11:08:32;;;;;;;10.43;4.63;;;7.50;99.90;;;;;;4798270;29;20054;-75
2021/04/13 11:11:35;;;;;;;6.90;2.75;;;7.50;99.90;;;;;;4816123;29;20046;-75
2021/04/13 11:14:18;;;;;;;9.52;3.15;;;7.60;99.90;;;;;;4806830;29;20043;-72
2021/04/13 11:17:24;;;;;;;7.32;2.83;;;7.60;99.90;;;;;;4801738;29;20058;-73
2021/04/13 11:20:18;;;;;;;9.38;2.92;;;7.70;99.90;;;;;;4797565;29;20049;-75
2021/04/13 11:23:23;;;;;;;9.07;4.68;;;7.70;99.90;;;;;;4789860;29;20499;-75
2021/04/13 11:26:12;;;;;;;10.38;3.75;;;7.70;99.90;;;;;;4808079;29;20299;-75
2021/04/13 11:29:08;;;;;;;10.93;4.57;;;7.70;99.90;;;;;;4799277;29;20120;-72
2021/04/13 11:32:08;;;;;;;10.32;5.53;;;7.70;99.90;;;;;;4772749;29;20066;-74
2021/04/13 11:34:55;;;;;;;9.48;5.32;;;7.60;99.90;;;;;;4827186;29;20615;-75
2021/04/13 11:37:37;;;;;;;14.18;7.88;;;7.60;99.90;;;;;;4796212;29;20085;-74
2021/04/13 11:40:11;;;;;;;11.05;5.93;;;7.60;99.90;;;;;;4792366;29;20621;-74
2021/04/13 11:46:59;;;;;;;6.68;3.28;;;7.50;99.90;;;;;;4772688;29;20225;-74
2021/04/13 11:49:46;;;;;;;7.70;3.53;;;7.50;99.90;;;;;;4797923;29;20099;-74
2021/04/13 11:52:51;;;;;;;7.13;3.33;;;7.50;99.90;;;;;;4799340;29;20042;-75
2021/04/13 11:55:45;;;;;;;6.85;3.55;;;7.50;99.90;;;;;;4813196;29;20794;-74
2021/04/13 11:58:25;;;;;;;7.47;3.65;;;7.50;99.90;;;;;;4802666;29;20054;-74
2021/04/13 12:01:12;;;;;;;10.48;4.10;;;7.40;99.90;;;;;;4820207;29;20051;-75
2021/04/13 12:04:01;;;;;;;9.13;3.80;;;7.40;99.90;;;;;;4801259;29;20066;-74
2021/04/13 12:06:53;;;;;;;9.35;4.10;;;7.50;99.90;;;;;;4812317;29;20046;-75
2021/04/13 12:09:45;;;;;;;11.63;5.47;;;7.50;99.90;;;;;;4804759;29;20059;-75
2021/04/13 12:12:32;;;;;;;13.38;5.07;;;7.50;99.90;;;;;;4816061;29;20582;-74
2021/04/13 12:15:05;;;;;;;18.38;8.05;;;7.40;99.90;;;;;;4802213;29;20038;-75
2021/04/13 12:17:39;;;;;;;23.50;8.07;;;7.50;99.90;;;;;;4796662;29;20072;-73
2021/04/13 12:20:39;;;;;;;18.92;7.47;;;7.40;99.90;;;;;;4822117;29;20106;-75
2021/04/13 12:23:05;;;;;;;15.73;6.38;;;7.40;99.90;;;;;;4819995;29;20046;-74
2021/04/13 12:25:35;;;;;;;19.08;8.98;;;7.40;99.90;;;;;;4805391;29;20050;-75
2021/04/13 12:28:07;;;;;;;12.00;5.60;;;7.40;99.90;;;;;;4824330;29;20074;-75
2021/04/13 12:30:33;;;;;;;10.60;4.55;;;7.40;99.90;;;;;;4806122;29;20046;-75
2021/04/13 12:33:01;;;;;;;10.60;4.82;;;7.30;99.90;;;;;;4804968;29;20050;-74
2021/04/13 12:35:49;;;;;;;8.73;4.60;;;7.30;99.90;;;;;;4814386;29;20142;-75
2021/04/13 12:38:37;;;;;;;10.68;5.93;;;7.40;99.90;;;;;;4832280;29;20058;-75
2021/04/13 12:41:27;;;;;;;11.50;4.82;;;7.50;99.90;;;;;;4804232;29;20807;-74
2021/04/13 12:44:13;;;;;;;7.57;3.45;;;7.40;99.90;;;;;;4812899;29;20058;-74
2021/04/13 12:46:41;;;;;;;9.50;4.60;;;7.40;99.90;;;;;;4782969;29;20539;-73
2021/04/13 12:49:13;;;;;;;8.02;3.55;;;7.30;99.90;;;;;;4794285;29;20061;-73
2021/04/13 12:51:52;;;;;;;11.23;4.97;;;7.20;99.90;;;;;;4784478;29;20051;-74
2021/04/13 12:54:40;;;;;;;7.03;3.78;;;7.20;99.90;;;;;;4786377;29;20494;-74
2021/04/13 12:57:22;;;;;;;7.07;3.53;;;7.40;99.90;;;;;;4795256;29;20070;-75
2021/04/13 13:00:10;;;;;;;7.38;3.55;;;7.30;99.90;;;;;;4783011;29;20400;-74
2021/04/13 13:48:45;;;;;;;10.10;3.60;;;7.30;99.90;;;;;;4791768;29;20062;-77
2021/04/13 13:51:35;;;;;;;8.18;3.95;;;7.20;99.90;;;;;;4815541;29;20045;-76
2021/04/13 13:54:23;;;;;;;6.13;3.17;;;7.20;99.90;;;;;;4814306;29;20043;-76
2021/04/13 13:56:52;;;;;;;7.55;4.03;;;7.10;99.90;;;;;;4824315;29;20571;-76
2021/04/13 13:59:21;;;;;;;5.65;3.00;;;7.20;99.90;;;;;;4810847;29;20051;-76
2021/04/13 14:02:23;;;;;;;6.53;2.78;;;7.20;99.90;;;;;;4802654;29;20051;-77
2021/04/13 14:04:54;;;;;;;4.80;2.75;;;7.10;99.90;;;;;;4776319;29;20051;-76
2021/04/13 14:07:31;;;;;;;7.35;3.92;;;7.00;99.90;;;;;;4783040;29;20046;-71
2021/04/13 14:10:33;;;;;;;7.13;3.58;;;7.50;99.90;;;;;;4789080;29;20055;-71
2021/04/13 14:13:30;;;;;;;10.20;3.88;;;7.80;99.90;;;;;;4796057;29;20067;-71
2021/04/13 14:15:57;;;;;;;6.00;2.92;;;;;;;;;;4793552;29;20078;-72
2021/04/13 14:31:32;;;;;;;5.07;2.53;;;7.80;99.90;;;;;;5309300;24;20129;-89
2021/04/13 14:33:59;;;;;;;4.72;2.90;;;7.80;99.90;;;;;;4790646;29;20606;-89
2021/04/13 14:36:26;;;;;;;6.15;3.20;;;7.80;99.90;;;;;;4799902;29;20043;-86
2021/04/13 14:38:53;;;;;;;7.00;3.00;;;7.80;99.90;;;;;;4793242;29;20405;-86
2021/04/13 14:41:20;;;;;;;8.43;3.08;;;7.70;99.90;;;;;;4828370;29;20511;-86
2021/04/13 14:43:47;;;;;;;6.72;3.67;;;7.70;99.90;;;;;;4814619;29;20062;-87
2021/04/13 18:10:31;;;;;;;3.65;1.13;;;7.10;99.90;;;;;;5844333;23;20028;-64
2021/04/13 18:13:33;;;;;;;2.63;1.33;;;7.00;99.90;;;;;;4858886;29;20488;-61
2021/04/13 18:16:07;;;;;;;4.30;1.65;;;7.00;99.90;;;;;;4856641;29;20133;-62
2021/04/13 18:18:43;;;;;;;4.80;2.25;;;6.90;99.90;;;;;;4872656;29;20068;-62
2021/04/13 18:21:18;;;;;;;4.88;2.10;;;6.90;99.90;;;;;;4875887;29;20048;-62
2021/04/13 18:24:02;;;;;;;1.90;0.75;;;6.90;99.90;;;;;;4849640;29;20059;-63
2021/04/13 18:26:37;;;;;;;4.90;1.50;;;6.80;99.90;;;;;;4860095;29;20050;-61
2021/04/13 18:29:08;;;;;;;4.22;1.70;;;6.80;99.90;;;;;;4869055;29;20048;-61
2021/04/13 18:32:08;;;;;;;4.03;1.67;;;6.80;99.90;;;;;;4862304;29;20041;-60
2021/04/13 18:34:56;;;;;;;3.60;1.60;;;6.80;99.90;;;;;;4866859;29;20104;-65
2021/04/13 18:37:37;;;;;;;5.85;2.65;;;6.80;99.90;;;;;;4876322;29;20045;-64
2021/04/13 18:40:17;;;;;;;3.70;2.47;;;6.80;99.90;;;;;;4851598;29;20041;-65
2021/04/13 18:42:49;;;;;;;4.32;2.00;;;6.80;99.90;;;;;;4861880;29;20132;-64
2021/04/13 18:45:26;;;;;;;5.57;2.95;;;6.80;99.90;;;;;;4856476;29;20057;-64
2021/04/13 18:48:16;;;;;;;5.28;2.58;;;6.80;99.90;;;;;;4880493;29;20128;-64
2021/04/13 18:50:47;;;;;;;5.75;3.25;;;6.70;99.90;;;;;;4864411;29;20496;-63
2021/04/13 18:53:42;;;;;;;5.37;2.50;;;6.60;99.90;;;;;;4867466;29;20053;-63
2021/04/13 18:56:15;;;;;;;3.90;1.35;;;6.50;99.90;;;;;;4856938;29;20069;-63
2021/04/13 18:58:50;;;;;;;5.95;2.05;;;6.40;99.90;;;;;;4837031;29;20041;-63
2021/04/13 19:01:22;;;;;;;10.02;3.85;;;6.40;99.90;;;;;;4864588;29;20037;-63
2021/04/13 19:03:54;;;;;;;6.93;2.95;;;6.30;99.90;;;;;;4868052;29;20726;-63